Addis Ababa, Ethiopia
Current Conditions -  °F | °C
As of 7:55 AM on Monday 22 Dec 2014 (Local Time) from KQRH Reporting Station
Haze Haze  
Wind Chill: 77°   Ceiling: Unl
Heat Index: 79°   Visibility: 6mi
Dew Point: 62°   Wind: 5mph
Humidity: 60%   Direction: NA
Pressure: 30.03"   Gusts: NA
Location:  9.02°N, 38.75°E
Report Text: KQRH 220455Z AUTO VRB04KT 9000 HZ CLR 25/17 A3003 RMK AO2 SLP166 T02500167
Loading
Personal Weather Stations






























Interactive Weather Map New forecast layout! Learn more

10-Day Weather Forecast

Advertisements
Track Severe Weather on mobile